Okok Point, AK

6:38 PM AKST on February 25, 2017 (GMT -0900)
Robert/bob/curtis Memorial | | Change Station
Active Advisory: Winter Storm Warning

Elev 56 ft 66.82 °N, 161.02 °W | Updated 40 minutes ago

Snow
Snow
33 °F
Feels Like 22 °F
N
18
Wind Variable Wind from SSW

Today
High -- | Low -- °F
--% Chance of Precip.
Yesterday
High -- | Low -- °F
Precip. -- in
Pressure 29.88 in
Visibility 8.0 miles
Clouds Scattered Clouds 2800 ft
Overcast 3800 ft
Windchill 22 °F
Dew Point 32 °F
Humidity 96%
Rainfall 0.00 in
Snow Depth Not available.
9:11 AM 6:40 PM
Waning Crescent, 0% visible
METAR PFNO 260258Z AUTO 21016KT 8SM -SN SCT028 OVC038 01/00 A2987 RMK AO2 PK WND 21029/0221 RAE01B20E23SNB23 SLP117 P0000 60000 T00060000 55007 FZRANO
Pressure 29.88 in
Visibility 8.0 miles
Clouds Scattered Clouds 2800 ft
Overcast 3800 ft
Windchill 22 °F
Dew Point 32 °F
Humidity 96%
Rainfall 0.00 in
Snow Depth Not available.
9:11 AM 6:40 PM
Waning Crescent, 0% visible
METAR PFNO 260258Z AUTO 21016KT 8SM -SN SCT028 OVC038 01/00 A2987 RMK AO2 PK WND 21029/0221 RAE01B20E23SNB23 SLP117 P0000 60000 T00060000 55007 FZRANO

Get Your Daily Forecast Email!

Thanks for signing up!

Be on the lookout for a verification email in your inbox.

You'll start receiving the daily forecast at 8 AM.

×

10-Day Weather Forecast

Almanac

Astronomy

Feb. 25, 2017 Rise Set
Actual Time
Civil Twilight
Nautical Twilight
Astronomical Twilight
Moon
Length of Visible Light
Length of Day
Tomorrow will be .
, % of the Moon is Illuminated

Today's Extremes

State Highs State Lows

Community

WunderPhotos

Upload Photos

1,962,540 photos uploaded!

WunderBlog® & News

Nearby

Air Quality

  Air Quality AQ Index Pollutant
Not available.

Snow Depth

Station Depth Elevation

Earthquake Activity

City Distance Mag. Time & Date
Minimum magnitude displayed is 2.5.

Coastal Water Temperatures

Place Temperature

Stations

Nearby Weather Stations

Station Location Temp. Windchill Dew Point Humidity Wind Precip. Elev Updated Type
                   

Watches & Warnings

Winter Storm Warning
Issued: 6:09 PM AKST Feb. 25, 2017 – National Weather Service

... Winter Storm Warning remains in effect until noon akst
Sunday...

* snow... 8 to 16 inches storm total accumulation.

* Blowing snow... reducing visibility to one half mile or less at
times.

* Winds... east 15 to 25 mph gusting to 45 mph.

* Timing... snow will be heavy at times. The strongest winds and
lowest visibility will occur this evening. Conditions will
improve Sunday morning.

* Impacts... visibility may be greatly reduced. Travel and
outdoor activities will be difficult.

Precautionary/preparedness actions...

A Winter Storm Warning means one or more significant winter
weather hazards are occurring or expected.